Time;durP1;ratioP1;P1;durP2;ratioP2;P2;SDS_P1;SDS_P2;PMS_P1;PMS_P2;Temp;Humidity;BMP_temperature;BMP_pressure;BME280_temperature;BME280_humidity;BME280_pressure;Samples;Min_cycle;Max_cycle;Signal;HPM_P1;HPM_P2
2021/05/28 00:00:59;;;;;;;8.35;6.22;;;;;;;9.18;nan;101076.69;5091437;28;20028;-78
2021/05/28 00:03:25;;;;;;;7.38;6.10;;;;;;;9.11;nan;101079.84;5076434;28;20032;-79
2021/05/28 00:05:50;;;;;;;6.28;5.28;;;;;;;9.05;nan;101082.97;5097374;28;20032;-79
2021/05/28 00:08:16;;;;;;;8.38;6.97;;;;;;;8.95;nan;101087.34;5093800;28;20047;-79
2021/05/28 00:10:42;;;;;;;7.55;6.03;;;;;;;8.92;nan;101079.72;5095919;28;20467;-79
2021/05/28 00:13:07;;;;;;;7.90;6.90;;;;;;;8.86;nan;101096.03;5082715;28;20680;-80
2021/05/28 00:15:33;;;;;;;9.15;7.43;;;;;;;8.82;nan;101102.50;5091454;28;20032;-80
2021/05/28 00:17:59;;;;;;;7.15;5.53;;;;;;;8.79;nan;101100.13;5101872;28;20065;-80
2021/05/28 00:20:24;;;;;;;7.30;5.72;;;;;;;8.77;nan;101105.56;5078789;28;20037;-80
2021/05/28 00:22:50;;;;;;;6.80;5.38;;;;;;;8.76;nan;101106.50;5077320;28;20033;-79
2021/05/28 00:25:15;;;;;;;4.97;4.15;;;;;;;8.78;nan;101109.03;5060932;28;20496;-79
2021/05/28 00:27:42;;;;;;;6.88;5.68;;;;;;;8.75;nan;101103.97;5073259;28;20264;-79
2021/05/28 00:30:08;;;;;;;7.93;6.30;;;;;;;8.75;nan;101103.97;5074882;28;20051;-79
2021/05/28 00:32:34;;;;;;;6.20;4.65;;;;;;;8.73;nan;101100.66;5074993;28;20032;-79
2021/05/28 00:34:59;;;;;;;9.48;7.30;;;;;;;8.81;nan;101109.59;5078924;28;20085;-79
2021/05/28 00:37:25;;;;;;;6.32;5.05;;;;;;;8.79;nan;101105.41;5070439;28;20607;-79
2021/05/28 00:39:50;;;;;;;7.85;5.78;;;;;;;8.78;nan;101099.31;5097449;28;20044;-79
2021/05/28 00:42:16;;;;;;;7.07;6.05;;;;;;;8.81;nan;101099.03;5079222;28;20056;-79
2021/05/28 00:44:42;;;;;;;8.77;6.25;;;;;;;8.90;nan;101094.81;5073114;28;20085;-79
2021/05/28 00:47:08;;;;;;;11.45;8.02;;;;;;;8.95;nan;101100.53;5057879;28;20033;-79
2021/05/28 00:49:34;;;;;;;5.95;4.95;;;;;;;8.94;nan;101104.16;5062992;28;20033;-79
2021/05/28 00:51:59;;;;;;;6.15;5.10;;;;;;;8.97;nan;101101.25;5093851;28;20083;-79
2021/05/28 00:54:24;;;;;;;6.18;4.55;;;;;;;9.00;nan;101098.34;5096451;28;21045;-79
2021/05/28 00:56:50;;;;;;;7.40;5.95;;;;;;;9.01;nan;101097.41;5099242;28;20057;-79
2021/05/28 00:59:16;;;;;;;8.23;6.60;;;;;;;9.04;nan;101102.41;5095634;28;20089;-79
2021/05/28 01:01:42;;;;;;;8.48;6.63;;;;;;;9.06;nan;101105.78;5077167;28;20036;-78
2021/05/28 01:04:07;;;;;;;6.53;5.45;;;;;;;9.10;nan;101099.25;5070460;28;20126;-78
2021/05/28 01:06:34;;;;;;;6.78;5.30;;;;;;;9.14;nan;101105.97;5050694;28;20028;-79
2021/05/28 01:08:59;;;;;;;7.55;6.40;;;;;;;9.17;nan;101101.41;5094270;28;20036;-80
2021/05/28 01:11:25;;;;;;;7.75;6.55;;;;;;;9.16;nan;101099.72;5094950;28;20323;-79
2021/05/28 01:13:51;;;;;;;7.13;6.13;;;;;;;9.18;nan;101103.91;5096679;28;20581;-79
2021/05/28 01:16:17;;;;;;;8.90;6.55;;;;;;;9.21;nan;101098.38;5068863;28;20431;-79
2021/05/28 01:18:43;;;;;;;7.28;5.47;;;;;;;9.22;nan;101105.31;5093777;28;20047;-79
2021/05/28 01:21:09;;;;;;;7.68;6.80;;;;;;;9.21;nan;101100.19;5094864;28;20386;-79
2021/05/28 01:23:36;;;;;;;8.63;6.80;;;;;;;9.22;nan;101100.03;5083529;28;20071;-79
2021/05/28 01:26:05;;;;;;;7.18;6.30;;;;;;;9.21;nan;101101.00;5076718;28;20265;-79
2021/05/28 01:28:30;;;;;;;7.70;6.05;;;;;;;9.22;nan;101101.84;5096835;28;20113;-79
2021/05/28 01:30:58;;;;;;;9.88;6.07;;;;;;;9.23;nan;101100.91;5088813;28;20044;-79
2021/05/28 01:33:27;;;;;;;6.00;4.75;;;;;;;9.30;nan;101104.69;5076824;28;20032;-78
2021/05/28 01:35:56;;;;;;;5.53;4.40;;;;;;;9.34;nan;101116.63;5075825;28;20052;-79
2021/05/28 01:38:22;;;;;;;6.28;4.75;;;;;;;9.33;nan;101109.69;5075261;28;20108;-79
2021/05/28 01:40:47;;;;;;;5.57;4.47;;;;;;;9.36;nan;101106.78;5059346;28;20056;-79
2021/05/28 01:43:12;;;;;;;6.18;5.20;;;;;;;9.37;nan;101105.84;5077115;28;20108;-79
2021/05/28 01:45:38;;;;;;;9.15;7.00;;;;;;;9.41;nan;101112.50;5077088;28;20036;-79
2021/05/28 01:48:03;;;;;;;8.85;6.05;;;;;;;9.42;nan;101111.56;5087373;28;20028;-80
2021/05/28 01:50:29;;;;;;;9.80;6.38;;;;;;;9.47;nan;101113.81;5060699;28;20052;-79
2021/05/28 01:52:54;;;;;;;12.20;8.65;;;;;;;9.49;nan;101112.72;5074121;28;20128;-79
2021/05/28 01:55:20;;;;;;;14.32;8.30;;;;;;;9.50;nan;101119.66;5073977;28;20363;-79
2021/05/28 01:57:45;;;;;;;8.60;6.13;;;;;;;9.42;nan;101116.00;5074043;28;20037;-79
2021/05/28 02:00:14;;;;;;;7.72;5.65;;;;;;;9.43;nan;101113.22;5072594;28;20036;-79
2021/05/28 02:02:39;;;;;;;6.75;5.15;;;;;;;9.44;nan;101120.19;5072970;28;20174;-79
2021/05/28 02:05:07;;;;;;;7.32;5.80;;;;;;;9.42;nan;101114.22;5071900;28;20128;-79
2021/05/28 02:07:32;;;;;;;6.88;5.40;;;;;;;9.44;nan;101114.06;5073516;28;20033;-79
2021/05/28 02:09:58;;;;;;;9.00;6.97;;;;;;;9.48;nan;101115.47;5073163;28;20047;-79
2021/05/28 02:12:23;;;;;;;10.60;7.57;;;;;;;9.49;nan;101119.81;5072846;28;20040;-79
2021/05/28 02:14:50;;;;;;;8.40;6.57;;;;;;;9.39;nan;101111.84;5055354;28;20040;-79
2021/05/28 02:17:16;;;;;;;6.60;5.40;;;;;;;9.38;nan;101115.44;5072491;28;20064;-78
2021/05/28 02:19:41;;;;;;;6.78;4.80;;;;;;;9.39;nan;101118.88;5072420;28;20275;-79
2021/05/28 02:22:10;;;;;;;6.63;4.65;;;;;;;9.36;nan;101120.00;5072974;28;20032;-79
2021/05/28 02:24:36;;;;;;;6.13;4.40;;;;;;;9.35;nan;101113.06;5054488;28;20032;-78
2021/05/28 02:27:01;;;;;;;8.88;6.85;;;;;;;9.31;nan;101119.53;5073988;28;20489;-79
2021/05/28 02:29:26;;;;;;;7.10;5.65;;;;;;;9.30;nan;101117.88;5073041;28;20056;-78
2021/05/28 02:31:52;;;;;;;7.70;5.63;;;;;;;9.33;nan;101123.72;5070898;28;20040;-79
2021/05/28 02:34:17;;;;;;;8.98;6.65;;;;;;;9.33;nan;101129.00;5073184;28;20036;-79
2021/05/28 02:36:42;;;;;;;10.98;8.27;;;;;;;9.28;nan;101128.56;5073464;28;20067;-79
2021/05/28 02:39:08;;;;;;;7.20;5.50;;;;;;;9.32;nan;101131.78;5073933;28;20065;-79
2021/05/28 02:41:34;;;;;;;8.18;5.70;;;;;;;9.32;nan;101129.16;5073468;28;20516;-79
2021/05/28 02:43:59;;;;;;;8.15;5.55;;;;;;;9.31;nan;101124.81;5074138;28;20032;-79
2021/05/28 02:46:25;;;;;;;7.85;5.93;;;;;;;9.30;nan;101124.00;5072855;28;20513;-79
2021/05/28 02:48:50;;;;;;;7.95;5.10;;;;;;;9.31;nan;101115.09;5055508;28;20043;-78
2021/05/28 02:51:16;;;;;;;9.38;6.20;;;;;;;9.34;nan;101119.28;5072156;28;20064;-78
2021/05/28 02:53:41;;;;;;;8.57;6.25;;;;;;;9.34;nan;101121.91;5073220;28;20624;-79
2021/05/28 02:56:07;;;;;;;8.35;6.55;;;;;;;9.32;nan;101118.59;5072371;28;20025;-78
2021/05/28 02:58:33;;;;;;;8.32;6.25;;;;;;;9.33;nan;101128.19;5072670;28;20116;-79
2021/05/28 03:00:59;;;;;;;8.32;6.57;;;;;;;9.33;nan;101130.81;5071918;28;20056;-79
2021/05/28 03:03:24;;;;;;;6.68;5.07;;;;;;;9.34;nan;101128.06;5075550;28;20051;-78
2021/05/28 03:05:51;;;;;;;7.68;5.70;;;;;;;9.35;nan;101129.72;5078795;28;20142;-79
2021/05/28 03:08:17;;;;;;;7.68;5.85;;;;;;;9.33;nan;101129.00;5088220;28;20067;-79
2021/05/28 03:10:43;;;;;;;7.30;6.15;;;;;;;9.31;nan;101123.00;5056822;28;20032;-79
2021/05/28 03:13:08;;;;;;;7.80;6.63;;;;;;;9.29;nan;101126.75;5075106;28;20466;-79
2021/05/28 03:15:34;;;;;;;9.43;6.82;;;;;;;9.25;nan;101133.28;5073380;28;20033;-79
2021/05/28 03:17:59;;;;;;;7.13;5.35;;;;;;;9.24;nan;101137.69;5080772;28;20032;-79
2021/05/28 03:20:32;;;;;;;5.97;4.80;;;;;;;9.22;nan;101131.69;5080225;28;20040;-78
2021/05/28 03:22:57;;;;;;;8.48;6.00;;;;;;;9.20;nan;101135.44;5078470;28;20029;-79
2021/05/28 03:25:23;;;;;;;7.72;6.10;;;;;;;9.16;nan;101129.59;5063939;28;20370;-79
2021/05/28 03:27:48;;;;;;;8.23;6.32;;;;;;;9.14;nan;101129.69;5082056;28;20505;-79
2021/05/28 03:30:15;;;;;;;7.05;5.82;;;;;;;9.13;nan;101137.75;5088198;28;20119;-79
2021/05/28 03:32:40;;;;;;;6.95;5.28;;;;;;;9.11;nan;101132.59;5096268;28;20064;-78
2021/05/28 03:35:07;;;;;;;7.60;5.60;;;;;;;9.09;nan;101142.44;5097462;28;20028;-78
2021/05/28 03:37:32;;;;;;;6.45;5.13;;;;;;;9.08;nan;101132.88;5098668;28;20028;-79
2021/05/28 03:39:58;;;;;;;8.30;6.50;;;;;;;9.04;nan;101130.59;5077739;28;20087;-79
2021/05/28 03:42:23;;;;;;;6.88;5.65;;;;;;;9.02;nan;101135.16;5076521;28;20093;-78
2021/05/28 03:44:49;;;;;;;6.20;4.97;;;;;;;9.01;nan;101139.63;5053436;28;20094;-79
2021/05/28 03:47:15;;;;;;;5.57;4.47;;;;;;;8.99;nan;101138.91;5062784;28;20311;-78
2021/05/28 03:49:42;;;;;;;4.97;3.75;;;;;;;8.98;nan;101137.22;5069612;28;20033;-78
2021/05/28 03:52:10;;;;;;;5.43;4.20;;;;;;;9.01;nan;101133.47;5094834;28;20039;-79
2021/05/28 03:54:36;;;;;;;5.68;3.35;;;;;;;9.05;nan;101137.56;5080069;28;20036;-79
2021/05/28 03:57:02;;;;;;;6.25;4.90;;;;;;;9.01;nan;101136.13;5089525;28;20567;-79
2021/05/28 03:59:28;;;;;;;8.68;6.68;;;;;;;8.91;nan;101128.13;5082656;28;20032;-79
2021/05/28 04:01:53;;;;;;;7.28;6.07;;;;;;;8.86;nan;101128.50;5098858;28;20047;-79
2021/05/28 04:04:18;;;;;;;7.57;5.30;;;;;;;8.89;nan;101130.91;5075818;28;20111;-79
2021/05/28 04:06:44;;;;;;;6.10;4.82;;;;;;;8.90;nan;101124.66;5099519;28;20111;-79
2021/05/28 04:09:09;;;;;;;6.40;5.03;;;;;;;8.88;nan;101120.47;5067501;28;20096;-79
2021/05/28 04:11:34;;;;;;;6.25;5.10;;;;;;;8.85;nan;101134.75;5083547;28;20028;-79
2021/05/28 04:13:59;;;;;;;7.28;4.93;;;;;;;8.85;nan;101121.56;5079982;28;20032;-79
2021/05/28 04:16:25;;;;;;;5.75;4.75;;;;;;;8.89;nan;101123.00;5055919;28;20035;-79
2021/05/28 04:18:50;;;;;;;6.13;4.70;;;;;;;8.99;nan;101120.44;5100129;28;20455;-79
2021/05/28 04:21:15;;;;;;;5.70;3.97;;;;;;;9.07;nan;101133.81;5084315;28;20033;-79
2021/05/28 04:23:41;;;;;;;7.22;5.72;;;;;;;9.10;nan;101132.72;5083406;28;20074;-79
2021/05/28 04:26:06;;;;;;;6.10;4.78;;;;;;;9.13;nan;101137.75;5068618;28;20286;-80
2021/05/28 04:28:31;;;;;;;8.88;6.25;;;;;;;9.15;nan;101130.53;5096523;28;20028;-79
2021/05/28 04:30:58;;;;;;;5.22;4.00;;;;;;;9.19;nan;101134.59;5083252;28;20036;-79
2021/05/28 04:33:24;;;;;;;4.45;3.25;;;;;;;9.27;nan;101136.59;5075922;28;20055;-79
2021/05/28 04:35:49;;;;;;;5.30;4.20;;;;;;;9.31;nan;101143.28;5075648;28;20024;-79
2021/05/28 04:38:14;;;;;;;5.38;4.10;;;;;;;9.33;nan;101150.13;5094991;28;20085;-78
2021/05/28 04:40:40;;;;;;;6.63;4.43;;;;;;;9.39;nan;101151.44;5097528;28;20039;-79
2021/05/28 04:43:06;;;;;;;6.05;4.50;;;;;;;9.47;nan;101148.97;5086371;28;20037;-79
2021/05/28 04:45:31;;;;;;;5.53;4.43;;;;;;;9.54;nan;101158.03;5073300;28;20039;-79
2021/05/28 04:47:56;;;;;;;8.30;5.68;;;;;;;9.60;nan;101145.28;5096650;28;20502;-79
2021/05/28 04:50:30;;;;;;;6.35;4.68;;;;;;;9.62;nan;101152.09;5089641;28;20396;-79
2021/05/28 04:52:56;;;;;;;5.30;4.13;;;;;;;9.70;nan;101154.09;5099289;28;20036;-79
2021/05/28 04:55:21;;;;;;;5.60;4.18;;;;;;;9.77;nan;101153.47;5100200;28;20100;-79
2021/05/28 04:57:46;;;;;;;5.20;3.92;;;;;;;9.81;nan;101154.03;5095952;28;20043;-79
2021/05/28 05:00:12;;;;;;;6.25;4.88;;;;;;;9.82;nan;101152.19;5084855;28;20541;-79
2021/05/28 05:02:38;;;;;;;6.97;5.50;;;;;;;9.88;nan;101156.97;5098571;28;20497;-79
2021/05/28 05:05:03;;;;;;;4.60;3.67;;;;;;;10.00;nan;101161.19;5069887;28;20032;-79
2021/05/28 05:07:29;;;;;;;9.18;5.97;;;;;;;10.05;nan;101172.19;5078977;28;20047;-79
2021/05/28 05:09:54;;;;;;;6.75;4.68;;;;;;;10.12;nan;101173.34;5087061;28;20055;-79
2021/05/28 05:12:19;;;;;;;6.15;4.68;;;;;;;10.21;nan;101174.38;5088109;28;20071;-79
2021/05/28 05:14:44;;;;;;;7.38;5.22;;;;;;;10.37;nan;101187.94;5091718;28;20125;-79
2021/05/28 05:17:10;;;;;;;12.95;9.23;;;;;;;10.50;nan;101186.88;5071399;28;20037;-79
2021/05/28 05:19:35;;;;;;;7.78;5.90;;;;;;;10.54;nan;101188.28;5058334;28;20036;-79
2021/05/28 05:22:00;;;;;;;6.03;5.05;;;;;;;10.62;nan;101193.72;5088871;28;20412;-79
2021/05/28 05:24:26;;;;;;;5.85;4.55;;;;;;;10.67;nan;101194.13;5071787;28;20051;-79
2021/05/28 05:26:51;;;;;;;6.85;5.30;;;;;;;10.83;nan;101198.91;5058005;28;20052;-79
2021/05/28 05:29:16;;;;;;;6.20;4.72;;;;;;;10.95;nan;101191.69;5075604;28;20549;-79
2021/05/28 05:31:42;;;;;;;8.65;6.07;;;;;;;11.01;nan;101199.91;5064281;28;20052;-79
2021/05/28 05:34:07;;;;;;;8.38;5.95;;;;;;;10.99;nan;101203.69;5090379;28;20593;-79
2021/05/28 05:36:35;;;;;;;5.80;4.40;;;;;;;10.97;nan;101203.81;5087892;28;20032;-79
2021/05/28 05:39:02;;;;;;;6.43;5.47;;;;;;;10.95;nan;101199.63;5087102;28;20028;-79
2021/05/28 05:41:28;;;;;;;7.57;5.78;;;;;;;10.91;nan;101204.34;5089302;28;20035;-79
2021/05/28 05:43:53;;;;;;;8.88;7.22;;;;;;;10.76;nan;101206.56;5096736;28;20127;-80
2021/05/28 05:46:18;;;;;;;12.00;7.55;;;;;;;10.82;nan;101215.75;5088367;28;20055;-79
2021/05/28 05:48:44;;;;;;;8.45;6.93;;;;;;;10.75;nan;101214.63;5093758;28;20123;-79
2021/05/28 05:51:09;;;;;;;8.90;5.97;;;;;;;10.78;nan;101215.19;5066759;28;20038;-79
2021/05/28 05:53:34;;;;;;;8.27;5.63;;;;;;;10.84;nan;101219.97;5097371;28;20501;-79
2021/05/28 05:56:00;;;;;;;11.30;7.72;;;;;;;10.83;nan;101214.78;5096482;28;20032;-79
2021/05/28 05:58:25;;;;;;;8.80;6.70;;;;;;;10.98;nan;101224.00;5096554;28;20048;-79
2021/05/28 06:00:50;;;;;;;8.40;6.07;;;;;;;11.12;nan;101216.63;5096359;28;20039;-79
2021/05/28 06:03:16;;;;;;;8.25;5.60;;;;;;;11.24;nan;101229.59;5097641;28;20038;-79
2021/05/28 06:05:41;;;;;;;7.38;5.43;;;;;;;11.34;nan;101226.94;5063678;28;20086;-79
2021/05/28 06:08:06;;;;;;;9.93;7.50;;;;;;;11.31;nan;101229.88;5059150;28;20497;-80
2021/05/28 06:10:32;;;;;;;7.50;6.05;;;;;;;11.40;nan;101220.28;5095503;28;20048;-79
2021/05/28 06:13:08;;;;;;;10.23;7.90;;;;;;;11.54;nan;101224.31;5090267;28;20036;-80
2021/05/28 06:15:35;;;;;;;11.50;7.18;;;;;;;11.56;nan;101225.84;5078304;28;20073;-79
2021/05/28 06:18:01;;;;;;;11.02;7.43;;;;;;;11.61;nan;101228.91;5061544;28;20032;-79
2021/05/28 06:20:28;;;;;;;10.18;7.00;;;;;;;11.51;nan;101212.16;5092826;28;20035;-80
2021/05/28 06:22:53;;;;;;;10.93;7.28;;;;;;;11.59;nan;101216.78;5076100;28;20045;-79
2021/05/28 06:25:18;;;;;;;11.18;6.43;;;;;;;12.05;nan;101221.28;5069235;28;20039;-80
2021/05/28 06:27:44;;;;;;;7.88;5.65;;;;;;;12.26;nan;101221.06;5084780;28;20036;-80
2021/05/28 06:30:10;;;;;;;11.10;6.90;;;;;;;11.94;nan;101231.22;5096345;28;20099;-80
2021/05/28 06:32:36;;;;;;;10.68;6.63;;;;;;;12.04;nan;101224.09;5076001;28;20040;-79
2021/05/28 06:35:02;;;;;;;9.68;5.75;;;;;;;12.22;nan;101225.00;5095908;28;20127;-79
2021/05/28 06:37:28;;;;;;;7.40;5.45;;;;;;;12.50;nan;101225.03;5069230;28;20451;-79
2021/05/28 06:39:53;;;;;;;10.80;7.80;;;;;;;12.57;nan;101226.09;5095763;28;20036;-79
2021/05/28 06:42:18;;;;;;;11.95;7.40;;;;;;;12.44;nan;101234.41;5075248;28;20037;-80
2021/05/28 06:44:43;;;;;;;9.57;7.05;;;;;;;12.41;nan;101236.50;5081841;28;20062;-80
2021/05/28 06:47:09;;;;;;;13.23;7.82;;;;;;;12.73;nan;101239.56;5088596;28;20097;-80
2021/05/28 06:49:35;;;;;;;7.80;5.43;;;;;;;12.78;nan;101251.56;5095650;28;20028;-79
2021/05/28 06:52:00;;;;;;;6.93;5.47;;;;;;;12.72;nan;101250.31;5094584;28;20195;-79
2021/05/28 06:54:25;;;;;;;8.43;5.65;;;;;;;12.83;nan;101247.47;5094465;28;20445;-79
2021/05/28 06:56:51;;;;;;;9.27;6.35;;;;;;;12.96;nan;101247.94;5088647;28;20094;-80
2021/05/28 06:59:16;;;;;;;7.82;5.88;;;;;;;12.87;nan;101245.34;5077070;28;20077;-79
2021/05/28 07:01:42;;;;;;;8.98;7.22;;;;;;;12.70;nan;101241.66;5081700;28;20039;-80
2021/05/28 07:04:07;;;;;;;10.32;7.10;;;;;;;12.91;nan;101250.22;5093745;28;20081;-80
2021/05/28 07:06:32;;;;;;;9.20;6.40;;;;;;;13.10;nan;101253.72;5068898;28;20036;-80
2021/05/28 07:08:58;;;;;;;10.85;7.60;;;;;;;13.18;nan;101256.47;5092979;28;20043;-79
2021/05/28 07:11:24;;;;;;;12.13;8.00;;;;;;;13.13;nan;101264.91;5071483;28;20309;-80
2021/05/28 07:13:49;;;;;;;7.75;6.10;;;;;;;13.05;nan;101269.28;5079956;28;20396;-79
2021/05/28 07:16:16;;;;;;;13.00;6.78;;;;;;;13.02;nan;101266.94;5077296;28;20381;-80
2021/05/28 07:18:41;;;;;;;9.73;7.30;;;;;;;13.04;nan;101262.28;5091830;28;20028;-79
2021/05/28 07:21:07;;;;;;;8.00;6.10;;;;;;;12.93;nan;101263.34;5095047;28;20028;-80
2021/05/28 07:23:33;;;;;;;9.07;6.85;;;;;;;12.96;nan;101265.69;5065424;28;20064;-79
2021/05/28 07:26:00;;;;;;;12.40;7.22;;;;;;;13.33;nan;101268.25;5075209;28;20060;-79
2021/05/28 07:28:27;;;;;;;10.23;7.38;;;;;;;13.64;nan;101273.19;5075103;28;20060;-79
2021/05/28 07:30:53;;;;;;;7.95;5.45;;;;;;;13.70;nan;101259.28;5075229;28;20143;-79
2021/05/28 07:33:18;;;;;;;9.70;6.78;;;;;;;13.63;nan;101268.84;5083414;28;20493;-79
2021/05/28 07:35:43;;;;;;;11.63;8.15;;;;;;;13.36;nan;101267.97;5091959;28;20298;-79
2021/05/28 07:38:09;;;;;;;9.98;7.20;;;;;;;13.34;nan;101261.13;5072805;28;20033;-79
2021/05/28 07:40:34;;;;;;;6.95;5.47;;;;;;;13.37;nan;101269.63;5090287;28;20558;-79
2021/05/28 07:43:01;;;;;;;12.02;7.57;;;;;;;13.11;nan;101274.00;5083881;28;20100;-79
2021/05/28 07:45:26;;;;;;;8.45;6.20;;;;;;;13.18;nan;101267.09;5089734;28;20039;-79
2021/05/28 07:47:52;;;;;;;7.93;5.63;;;;;;;13.40;nan;101259.69;5094453;28;20039;-79
2021/05/28 07:50:18;;;;;;;6.57;5.30;;;;;;;13.49;nan;101264.94;5095769;28;20047;-78
2021/05/28 07:52:43;;;;;;;11.48;7.68;;;;;;;13.27;nan;101266.19;5071330;28;20093;-78
2021/05/28 07:55:09;;;;;;;9.63;7.80;;;;;;;13.14;nan;101265.72;5072148;28;20036;-78
2021/05/28 07:57:35;;;;;;;12.18;7.68;;;;;;;13.33;nan;101265.59;5073828;28;20048;-79
2021/05/28 08:00:00;;;;;;;11.55;7.53;;;;;;;13.29;nan;101261.56;5089365;28;20043;-78
2021/05/28 08:02:25;;;;;;;8.13;6.20;;;;;;;13.29;nan;101266.88;5095191;28;20066;-79
2021/05/28 08:04:51;;;;;;;9.30;7.40;;;;;;;13.59;nan;101257.72;5099596;28;20067;-79
2021/05/28 08:07:16;;;;;;;9.32;6.45;;;;;;;14.28;nan;101249.88;5086106;28;20040;-79
2021/05/28 08:09:42;;;;;;;11.57;8.35;;;;;;;14.70;nan;101251.72;5087904;28;20036;-79
2021/05/28 08:12:07;;;;;;;10.13;6.47;;;;;;;14.67;nan;101256.56;5097570;28;20484;-80
2021/05/28 08:14:32;;;;;;;7.72;5.60;;;;;;;14.82;nan;101252.28;5097633;28;20115;-79
2021/05/28 08:16:58;;;;;;;10.05;6.70;;;;;;;15.12;nan;101252.69;5088227;28;20040;-79
2021/05/28 08:19:23;;;;;;;9.65;6.47;;;;;;;15.33;nan;101252.22;5068183;28;20460;-79
2021/05/28 08:21:49;;;;;;;8.02;6.22;;;;;;;16.07;nan;101258.38;5099087;28;20593;-79
2021/05/28 08:24:15;;;;;;;10.30;6.63;;;;;;;17.06;nan;101264.19;5078881;28;20389;-79
2021/05/28 08:26:40;;;;;;;8.93;5.68;;;;;;;17.71;nan;101263.72;5077163;28;20032;-77
2021/05/28 08:29:07;;;;;;;8.32;5.25;;;;;;;17.50;nan;101266.22;5052290;28;20079;-77
2021/05/28 08:31:33;;;;;;;8.57;6.05;;;;;;;17.01;nan;101250.53;5073800;28;20044;-78
2021/05/28 08:33:59;;;;;;;9.15;6.45;;;;;;;16.61;nan;101253.19;5090663;28;20074;-77
2021/05/28 08:36:24;;;;;;;9.65;6.47;;;;;;;16.01;nan;101249.22;5095299;28;20497;-79
2021/05/28 08:38:49;;;;;;;9.00;6.85;;;;;;;15.28;nan;101247.38;5098886;28;20048;-79
2021/05/28 08:41:15;;;;;;;10.43;7.22;;;;;;;15.08;nan;101250.34;5098989;28;20043;-79
2021/05/28 08:43:42;;;;;;;5.95;4.53;;;;;;;15.10;nan;101246.69;5099328;28;20036;-78
2021/05/28 08:46:08;;;;;;;8.18;5.72;;;;;;;14.93;nan;101254.63;5078622;28;20049;-79
2021/05/28 08:48:33;;;;;;;9.18;6.43;;;;;;;14.83;nan;101249.47;5077871;28;20349;-79
2021/05/28 08:50:59;;;;;;;6.85;5.63;;;;;;;16.18;nan;101250.00;5075626;28;20039;-79
2021/05/28 08:53:25;;;;;;;5.90;4.35;;;;;;;16.86;nan;101250.44;5066876;28;20035;-78
2021/05/28 08:55:50;;;;;;;6.75;5.20;;;;;;;16.50;nan;101248.25;5076012;28;20332;-79
2021/05/28 08:58:19;;;;;;;7.03;5.28;;;;;;;15.78;nan;101248.22;5092738;28;20206;-78
2021/05/28 09:00:46;;;;;;;8.60;5.38;;;;;;;15.30;nan;101250.69;5095539;28;20533;-79
2021/05/28 09:03:32;;;;;;;5.90;4.68;;;;;;;14.99;nan;101245.16;5088120;28;20040;-78
2021/05/28 09:06:01;;;;;;;5.80;4.40;;;;;;;15.13;nan;101238.38;5079130;28;20035;-78
2021/05/28 09:08:36;;;;;;;6.68;4.25;;;;;;;15.66;nan;101250.38;5076622;28;20040;-78
2021/05/28 09:11:06;;;;;;;5.88;4.10;;;;;;;16.80;nan;101248.47;5095061;28;20278;-76
2021/05/28 09:13:33;;;;;;;6.60;4.00;;;;;;;17.35;nan;101242.09;5077893;28;20044;-77
2021/05/28 09:16:06;;;;;;;4.45;2.80;;;;;;;17.75;nan;101242.78;5064653;28;20094;-77
2021/05/28 09:18:46;;;;;;;5.10;2.70;;;;;;;17.60;nan;101240.06;5076084;28;20040;-77
2021/05/28 09:21:14;;;;;;;7.50;3.23;;;;;;;17.58;nan;101250.13;5082660;28;20032;-76
2021/05/28 09:23:40;;;;;;;4.90;2.42;;;;;;;16.97;nan;101245.53;5074262;28;20293;-78
2021/05/28 09:26:08;;;;;;;4.93;3.53;;;;;;;17.16;nan;101249.59;5092990;28;20403;-77
2021/05/28 09:28:45;;;;;;;4.82;3.72;;;;;;;16.69;nan;101241.66;5092085;28;20032;-78
2021/05/28 09:31:14;;;;;;;7.18;4.10;;;;;;;16.70;nan;101238.78;5092431;28;20078;-76
2021/05/28 09:33:43;;;;;;;7.72;4.50;;;;;;;16.16;nan;101238.69;5079353;28;20039;-79
2021/05/28 09:36:11;;;;;;;6.07;4.30;;;;;;;16.14;nan;101241.53;5076213;28;20024;-78
2021/05/28 09:38:38;;;;;;;5.15;4.03;;;;;;;16.24;nan;101246.66;5075550;28;20035;-78
2021/05/28 09:41:05;;;;;;;6.43;4.10;;;;;;;16.06;nan;101246.84;5097556;28;20042;-78
2021/05/28 09:43:32;;;;;;;7.30;4.32;;;;;;;15.94;nan;101245.56;5096623;28;20039;-78
2021/05/28 09:45:57;;;;;;;5.18;3.90;;;;;;;15.81;nan;101232.75;5092299;28;20029;-78
2021/05/28 09:48:31;;;;;;;5.40;3.45;;;;;;;15.97;nan;101237.22;5088743;28;20043;-78
2021/05/28 09:51:03;;;;;;;4.38;3.13;;;;;;;16.34;nan;101244.63;5048367;28;20341;-76
2021/05/28 09:53:40;;;;;;;4.43;3.33;;;;;;;16.39;nan;101243.28;5068027;28;20451;-78
2021/05/28 09:56:41;;;;;;;6.00;3.85;;;;;;;16.73;nan;101245.63;5068427;28;20033;-78
2021/05/28 09:59:08;;;;;;;4.57;3.75;;;;;;;16.74;nan;101233.94;4997352;28;20038;-78
2021/05/28 10:01:35;;;;;;;5.15;2.85;;;;;;;16.94;nan;101243.19;5051348;28;20459;-78
2021/05/28 10:04:10;;;;;;;4.63;1.92;;;;;;;16.56;nan;101240.38;5065522;28;20787;-78
2021/05/28 10:06:37;;;;;;;3.95;1.50;;;;;;;16.42;nan;101232.25;5072675;28;20493;-78
2021/05/28 10:09:06;;;;;;;4.75;1.80;;;;;;;16.43;nan;101236.59;5091086;28;20034;-79
2021/05/28 10:11:32;;;;;;;3.25;1.40;;;;;;;16.46;nan;101234.41;5094376;28;20039;-78
2021/05/28 10:13:58;;;;;;;2.90;2.10;;;;;;;16.41;nan;101228.75;5093203;28;20028;-78
2021/05/28 10:16:24;;;;;;;3.53;2.00;;;;;;;16.39;nan;101225.41;5094465;28;20101;-78
2021/05/28 10:18:51;;;;;;;2.15;1.55;;;;;;;16.29;nan;101225.63;5082493;28;20473;-79
2021/05/28 10:21:17;;;;;;;4.60;1.73;;;;;;;16.21;nan;101235.47;5095539;28;20040;-79
2021/05/28 10:23:43;;;;;;;2.60;1.40;;;;;;;16.41;nan;101223.41;5091689;28;20590;-79
2021/05/28 10:26:10;;;;;;;3.05;1.48;;;;;;;16.47;nan;101216.53;5090049;28;20032;-78
2021/05/28 10:28:36;;;;;;;2.50;1.20;;;;;;;16.84;nan;101220.41;5091105;28;20036;-78
2021/05/28 10:31:03;;;;;;;3.55;1.40;;;;;;;17.14;nan;101219.53;5091550;28;20036;-78
2021/05/28 10:33:30;;;;;;;2.00;1.02;;;;;;;17.39;nan;101216.69;5091753;28;20516;-76
2021/05/28 10:35:59;;;;;;;2.53;1.40;;;;;;;17.70;nan;101221.91;5092196;28;20512;-76
2021/05/28 10:38:30;;;;;;;2.50;1.33;;;;;;;17.63;nan;101211.09;5091529;28;20032;-77
2021/05/28 10:41:05;;;;;;;;;;;;;;;17.27;nan;101212.78;5089872;28;20432;-77
2021/05/28 10:43:35;;;;;;;3.50;1.27;;;;;;;17.12;nan;101216.22;5090280;28;19927;-76
2021/05/28 10:46:10;;;;;;;2.45;1.30;;;;;;;16.79;nan;101214.75;5072631;28;20115;-77
2021/05/28 10:48:38;;;;;;;1.98;1.17;;;;;;;16.72;nan;101215.41;5090861;28;20036;-79
2021/05/28 10:51:04;;;;;;;3.65;1.30;;;;;;;16.90;nan;101209.84;5094214;28;20051;-79
2021/05/28 10:53:30;;;;;;;2.47;1.10;;;;;;;16.89;nan;101205.50;5088970;28;20025;-79
2021/05/28 10:56:00;;;;;;;4.15;1.20;;;;;;;17.00;nan;101211.47;5091042;28;20039;-77
2021/05/28 10:58:57;;;;;;;2.75;1.33;;;;;;;16.84;nan;101221.22;5084173;28;20131;-79
2021/05/28 11:01:34;;;;;;;3.70;1.63;;;;;;;16.62;nan;101209.47;5084876;28;20089;-79
2021/05/28 11:04:04;;;;;;;3.25;1.58;;;;;;;16.43;nan;101204.56;5094657;28;20051;-79
2021/05/28 11:06:30;;;;;;;3.15;1.92;;;;;;;16.41;nan;101210.06;5093028;28;20032;-79
2021/05/28 11:09:06;;;;;;;3.60;1.50;;;;;;;16.32;nan;101205.75;5093114;28;20110;-79
2021/05/28 11:11:41;;;;;;;2.92;1.60;;;;;;;16.20;nan;101202.63;5094786;28;20047;-79
2021/05/28 11:14:08;;;;;;;4.57;2.00;;;;;;;16.07;nan;101205.03;5093799;28;20028;-80
2021/05/28 11:16:49;;;;;;;2.40;1.50;;;;;;;15.83;nan;101209.41;5093953;28;20024;-79
2021/05/28 11:19:31;;;;;;;4.07;1.67;;;;;;;15.97;nan;101205.22;5087769;28;20033;-79
2021/05/28 11:22:02;;;;;;;3.17;1.52;;;;;;;15.96;nan;101198.22;5088411;28;20052;-79
2021/05/28 11:24:43;;;;;;;2.85;1.60;;;;;;;15.80;nan;101199.09;5085973;28;20058;-79
2021/05/28 11:27:34;;;;;;;2.45;1.50;;;;;;;15.81;nan;101199.91;5092713;28;20036;-79
2021/05/28 11:30:02;;;;;;;4.97;1.80;;;;;;;15.95;nan;101198.41;5078592;28;20056;-77
2021/05/28 11:32:35;;;;;;;3.20;1.80;;;;;;;16.02;nan;101194.03;5091705;28;20032;-77
2021/05/28 11:35:17;;;;;;;4.38;2.00;;;;;;;15.92;nan;101192.41;5086474;28;20048;-77
2021/05/28 11:37:58;;;;;;;2.47;1.70;;;;;;;16.09;nan;101192.34;5093282;28;20421;-78
2021/05/28 11:40:36;;;;;;;1.90;1.45;;;;;;;16.33;nan;101188.75;5090497;28;20105;-77
2021/05/28 11:43:11;;;;;;;2.60;1.60;;;;;;;16.42;nan;101193.06;5097630;28;20038;-78